createdAt,value
2019-03-18T00:02:04.522Z,99088.02
2019-03-18T00:04:34.054Z,99087.55
2019-03-18T00:07:03.544Z,99071.52
2019-03-18T00:09:32.893Z,99064.18
2019-03-18T00:12:02.241Z,99053.41
2019-03-18T00:14:31.650Z,99069.84
2019-03-18T00:17:01.006Z,99061.48
2019-03-18T00:19:30.400Z,99040.16
2019-03-18T00:21:59.800Z,99034.97
2019-03-18T00:24:29.140Z,99045.35
2019-03-18T00:26:58.496Z,99038.02
2019-03-18T00:29:27.925Z,99028.55
2019-03-18T00:31:57.684Z,99028.20
2019-03-18T00:34:27.030Z,99025.03
2019-03-18T00:36:56.629Z,99031.91
2019-03-18T00:39:25.998Z,99032.75
2019-03-18T00:41:55.356Z,99038.78
2019-03-18T00:44:24.742Z,99037.94
2019-03-18T00:46:54.120Z,99048.03
2019-03-18T00:49:23.530Z,99046.19
2019-03-18T00:51:55.192Z,99043.97
2019-03-18T00:54:24.619Z,99040.46
2019-03-18T00:56:53.983Z,99034.58
2019-03-18T00:59:23.375Z,99041.91
2019-03-18T01:01:52.805Z,99041.53
2019-03-18T01:04:22.196Z,99036.27
2019-03-18T01:06:51.589Z,99033.02
2019-03-18T01:09:21.018Z,99036.91
2019-03-18T01:11:50.374Z,98913.21
2019-03-18T01:14:20.088Z,99028.44
2019-03-18T01:16:49.467Z,99021.19
2019-03-18T01:19:18.912Z,99019.05
2019-03-18T01:21:48.289Z,99011.18
2019-03-18T01:24:17.675Z,99013.86
2019-03-18T01:26:47.138Z,99008.96
2019-03-18T01:29:16.478Z,99012.02
2019-03-18T01:31:45.839Z,99004.69
2019-03-18T01:34:15.233Z,99006.74
2019-03-18T01:36:44.598Z,99005.91
2019-03-18T01:39:13.946Z,99012.23
2019-03-18T01:41:43.344Z,99011.40
2019-03-18T01:44:12.718Z,99007.42
2019-03-18T01:46:42.087Z,99003.23
2019-03-18T01:49:11.491Z,99002.31
2019-03-18T01:51:40.841Z,98996.73
2019-03-18T01:54:10.168Z,98989.97
2019-03-18T01:56:39.577Z,98985.34
2019-03-18T01:59:08.919Z,98983.67
2019-03-18T02:01:38.313Z,98984.86
2019-03-18T02:04:07.732Z,98976.34
2019-03-18T02:06:37.168Z,98984.05
2019-03-18T02:09:07.570Z,98984.86
2019-03-18T02:11:37.060Z,98980.80
2019-03-18T02:14:06.403Z,98983.94
2019-03-18T02:16:35.794Z,98981.26
2019-03-18T02:19:05.181Z,98985.08
2019-03-18T02:21:34.575Z,98988.89
2019-03-18T02:24:03.911Z,98989.81
2019-03-18T02:26:33.275Z,98991.30
2019-03-18T02:29:02.650Z,98993.43
2019-03-18T02:31:31.979Z,98994.19
2019-03-18T02:34:01.412Z,98993.73
2019-03-18T02:36:30.893Z,98988.53
2019-03-18T02:39:00.441Z,98990.38
2019-03-18T02:41:29.821Z,98999.38
2019-03-18T02:43:59.198Z,98990.67
2019-03-18T02:46:28.568Z,98984.44
2019-03-18T02:48:58.103Z,98989.30
2019-03-18T02:51:27.433Z,98994.83
2019-03-18T02:53:56.802Z,98985.73
2019-03-18T02:56:26.230Z,98986.42
2019-03-18T02:58:55.592Z,98988.94
2019-03-18T03:01:24.982Z,98990.61
2019-03-18T03:03:54.383Z,98987.44
2019-03-18T03:06:23.759Z,98991.45
2019-03-18T03:08:53.087Z,98990.95
2019-03-18T03:11:22.485Z,98987.90
2019-03-18T03:13:51.951Z,98987.36
2019-03-18T03:16:27.124Z,98988.58
2019-03-18T03:18:52.344Z,98985.52
2019-03-18T03:21:21.976Z,98989.67
2019-03-18T03:23:51.309Z,98984.22
2019-03-18T03:26:20.737Z,98985.89
2019-03-18T03:28:50.174Z,98982.83
2019-03-18T03:31:19.616Z,98983.18
2019-03-18T03:33:48.964Z,98987.45
2019-03-18T03:36:18.341Z,98989.05
2019-03-18T03:38:47.685Z,98989.05
2019-03-18T03:41:18.320Z,98983.09
2019-03-18T03:43:47.965Z,98984.31
2019-03-18T03:46:17.345Z,98989.89
2019-03-18T03:48:46.682Z,98992.48
2019-03-18T03:51:16.089Z,98998.98
2019-03-18T03:53:45.858Z,99004.09
2019-03-18T03:56:15.172Z,99001.13
2019-03-18T03:58:44.689Z,99008.45
2019-03-18T04:01:14.042Z,99008.45
2019-03-18T04:03:43.389Z,99012.53
2019-03-18T04:06:12.838Z,99009.09
2019-03-18T04:08:42.332Z,99010.70
2019-03-18T04:11:11.675Z,99005.50
2019-03-18T04:13:41.059Z,99017.57
2019-03-18T04:16:10.505Z,99017.66
2019-03-18T04:18:39.941Z,99018.41
2019-03-18T04:21:09.411Z,99018.41
2019-03-18T04:23:38.892Z,99010.70
2019-03-18T04:26:08.338Z,99023.15
2019-03-18T04:28:37.786Z,99021.39
2019-03-18T04:31:07.170Z,99025.55
2019-03-18T04:33:39.026Z,99030.29
2019-03-18T04:36:07.624Z,99025.47
2019-03-18T04:38:36.975Z,99030.96
2019-03-18T04:41:06.534Z,99026.60
2019-03-18T04:43:36.100Z,99029.09
2019-03-18T04:46:05.415Z,99035.04
2019-03-18T04:48:34.797Z,99035.88
2019-03-18T04:51:04.146Z,99038.86
2019-03-18T04:53:33.480Z,99034.96
2019-03-18T04:56:02.839Z,99045.28
2019-03-18T04:58:32.215Z,99043.97
2019-03-18T05:01:01.722Z,99047.30
2019-03-18T05:03:31.083Z,99051.78
2019-03-18T05:06:00.523Z,99056.76
2019-03-18T05:08:29.854Z,99054.63
2019-03-18T05:10:59.246Z,99051.55
2019-03-18T05:13:28.618Z,99056.02
2019-03-18T05:15:57.946Z,99055.42
2019-03-18T05:18:27.489Z,99058.27
2019-03-18T05:20:56.859Z,99066.06
2019-03-18T05:23:26.218Z,99064.77
2019-03-18T05:25:55.565Z,99067.91
2019-03-18T05:28:24.987Z,99073.53
2019-03-18T05:30:54.326Z,99073.53
2019-03-18T05:33:23.682Z,99077.97
2019-03-18T05:35:53.153Z,99085.30
2019-03-18T05:38:22.593Z,99080.56
2019-03-18T05:40:52.154Z,99085.87
2019-03-18T05:43:21.550Z,99086.33
2019-03-18T05:45:50.907Z,99081.52
2019-03-18T05:48:20.235Z,99076.02
2019-03-18T05:50:49.697Z,99080.26
2019-03-18T05:53:19.075Z,99097.52
2019-03-18T05:55:48.418Z,99109.03
2019-03-18T05:58:17.858Z,99110.05
2019-03-18T06:00:47.247Z,99109.63
2019-03-18T06:03:16.647Z,99113.30
2019-03-18T06:05:45.962Z,99119.61
2019-03-18T06:08:15.327Z,99124.03
2019-03-18T06:10:44.774Z,99127.67
2019-03-18T06:13:14.197Z,99126.14
2019-03-18T06:15:43.590Z,99127.97
2019-03-18T06:18:12.953Z,99133.82
2019-03-18T06:20:42.378Z,99143.79
2019-03-18T06:23:11.805Z,99142.72
2019-03-18T06:25:41.180Z,99143.13
2019-03-18T06:28:10.534Z,99145.19
2019-03-18T06:30:40.042Z,99153.13
2019-03-18T06:33:09.578Z,99152.02
2019-03-18T06:35:38.875Z,99154.48
2019-03-18T06:38:08.278Z,99153.95
2019-03-18T06:40:37.628Z,99157.28
2019-03-18T06:43:07.061Z,99159.72
2019-03-18T06:45:36.523Z,99169.92
2019-03-18T06:48:05.882Z,99168.44
2019-03-18T06:50:35.263Z,99172.42
2019-03-18T06:53:04.681Z,99172.61
2019-03-18T06:55:34.089Z,99177.54
2019-03-18T06:58:03.426Z,99175.42
2019-03-18T07:00:32.910Z,99180.81
2019-03-18T07:03:02.526Z,99185.77
2019-03-18T07:05:31.978Z,99186.88
2019-03-18T07:08:01.349Z,99192.16
2019-03-18T07:10:30.793Z,99186.78
2019-03-18T07:13:00.317Z,99189.59
2019-03-18T07:15:29.662Z,99197.98
2019-03-18T07:17:59.018Z,99200.23
2019-03-18T07:20:28.363Z,99199.14
2019-03-18T07:22:57.752Z,99198.56
2019-03-18T07:25:27.242Z,99203.40
2019-03-18T07:27:56.559Z,99203.70
2019-03-18T07:30:25.970Z,99198.95
2019-03-18T07:32:55.452Z,99201.55
2019-03-18T07:35:24.799Z,99207.14
2019-03-18T07:37:54.220Z,99210.48
2019-03-18T07:40:23.645Z,99217.92
2019-03-18T07:42:53.002Z,99224.03
2019-03-18T07:45:22.445Z,99225.42
2019-03-18T07:47:52.264Z,99230.64
2019-03-18T07:50:21.647Z,99226.65
2019-03-18T07:52:51.040Z,99225.44
2019-03-18T07:55:20.502Z,99236.45
2019-03-18T07:57:49.853Z,99234.56
2019-03-18T08:00:19.293Z,99236.17
2019-03-18T08:02:48.749Z,99242.47
2019-03-18T08:05:18.090Z,99246.67
2019-03-18T08:07:47.491Z,99252.27
2019-03-18T08:10:16.962Z,99246.28
2019-03-18T08:12:46.452Z,99255.88
2019-03-18T08:15:15.873Z,99257.64
2019-03-18T08:17:45.274Z,99266.39
2019-03-18T08:20:15.009Z,99262.84
2019-03-18T08:22:44.537Z,99275.98
2019-03-18T08:25:13.856Z,99276.45
2019-03-18T08:27:43.244Z,99279.15
2019-03-18T08:30:12.833Z,99278.31
2019-03-18T08:32:42.230Z,99282.64
2019-03-18T08:35:11.671Z,99281.72
2019-03-18T08:37:41.194Z,99281.72
2019-03-18T08:40:10.724Z,99282.09
2019-03-18T08:42:40.139Z,99284.77
2019-03-18T08:45:09.506Z,99294.52
2019-03-18T08:47:38.913Z,99296.17
2019-03-18T08:50:08.455Z,99293.91
2019-03-18T08:52:37.853Z,99303.85
2019-03-18T08:55:07.260Z,99306.34
2019-03-18T08:57:36.659Z,99306.89
2019-03-18T09:00:07.399Z,99323.91
2019-03-18T09:02:36.814Z,99322.78
2019-03-18T09:05:06.618Z,99327.30
2019-03-18T09:07:35.967Z,99330.38
2019-03-18T09:10:06.110Z,99330.02
2019-03-18T09:12:35.430Z,99337.77
2019-03-18T09:15:06.306Z,99340.85
2019-03-18T09:17:35.691Z,99341.33
2019-03-18T09:20:05.475Z,99347.69
2019-03-18T09:22:35.032Z,99346.44
2019-03-18T09:25:04.849Z,99354.11
2019-03-18T09:27:34.146Z,99352.36
2019-03-18T09:30:03.881Z,99350.69
2019-03-18T09:32:33.391Z,99354.23
2019-03-18T09:35:02.716Z,99356.38
2019-03-18T09:37:32.209Z,99358.52
2019-03-18T09:40:01.602Z,99363.73
2019-03-18T09:42:31.208Z,99371.17
2019-03-18T09:45:00.526Z,99374.33
2019-03-18T09:47:30.018Z,99371.19
2019-03-18T09:49:59.373Z,99375.17
2019-03-18T09:52:28.758Z,99288.75
2019-03-18T09:54:58.143Z,99378.72
2019-03-18T09:57:27.591Z,99375.73
2019-03-18T09:59:56.936Z,99203.79
2019-03-18T10:02:26.350Z,99377.77
2019-03-18T10:04:55.806Z,99372.95
2019-03-18T10:07:25.233Z,99367.64
2019-03-18T10:09:54.639Z,99378.53
2019-03-18T10:12:24.092Z,99382.91
2019-03-18T10:14:53.399Z,99395.28
2019-03-18T10:17:22.721Z,99392.78
2019-03-18T10:19:53.601Z,99391.20
2019-03-18T10:22:23.116Z,99401.67
2019-03-18T10:24:52.495Z,99409.76
2019-03-18T10:27:21.859Z,99409.17
2019-03-18T10:29:51.166Z,99413.11
2019-03-18T10:32:20.557Z,99421.20
2019-03-18T10:34:50.000Z,99426.71
2019-03-18T10:37:19.379Z,99421.28
2019-03-18T10:39:48.770Z,99429.77
2019-03-18T10:42:18.189Z,99440.67
2019-03-18T10:44:47.670Z,99441.70
2019-03-18T10:47:17.096Z,99446.36
2019-03-18T10:49:46.759Z,99447.77
2019-03-18T10:52:16.307Z,99451.77
2019-03-18T10:54:45.715Z,99450.95
2019-03-18T10:57:15.048Z,99453.73
2019-03-18T10:59:44.452Z,99457.43
2019-03-18T11:02:13.846Z,99456.94
2019-03-18T11:04:43.310Z,99461.27
2019-03-18T11:07:12.758Z,99469.36
2019-03-18T11:09:42.159Z,99475.03
2019-03-18T11:12:11.679Z,99470.68
2019-03-18T11:14:41.069Z,99478.13
2019-03-18T11:17:10.503Z,99482.05
2019-03-18T11:19:40.001Z,99485.48
2019-03-18T11:22:09.362Z,99492.74
2019-03-18T11:24:38.809Z,99494.91
2019-03-18T11:27:08.273Z,99488.94
2019-03-18T11:29:37.674Z,99492.77
2019-03-18T11:32:07.075Z,99503.03
2019-03-18T11:34:36.454Z,99508.17
2019-03-18T11:37:05.838Z,99513.39
2019-03-18T11:39:35.141Z,99514.78
2019-03-18T11:42:04.662Z,99521.77
2019-03-18T11:44:34.066Z,99528.97
2019-03-18T11:47:03.467Z,99533.34
2019-03-18T11:49:39.426Z,99532.70
2019-03-18T11:52:03.995Z,99537.33
2019-03-18T11:54:33.541Z,99540.69
2019-03-18T11:57:02.930Z,99544.20
2019-03-18T11:59:32.339Z,99542.89
2019-03-18T12:02:01.740Z,99549.48
2019-03-18T12:04:32.868Z,99549.57
2019-03-18T12:07:02.330Z,99556.75
2019-03-18T12:09:31.716Z,99557.48
2019-03-18T12:12:01.122Z,99567.30
2019-03-18T12:14:30.708Z,99568.30
2019-03-18T12:17:00.090Z,99570.12
2019-03-18T12:19:29.441Z,99569.44
2019-03-18T12:21:58.801Z,99573.52
2019-03-18T12:24:28.291Z,99575.98
2019-03-18T12:26:57.623Z,99582.52
2019-03-18T12:29:27.038Z,99582.86
2019-03-18T12:31:56.393Z,99589.76
2019-03-18T12:34:25.733Z,99592.97
2019-03-18T12:36:55.124Z,99596.14
2019-03-18T12:39:24.977Z,99599.95
2019-03-18T12:41:54.374Z,99604.14
2019-03-18T12:44:23.702Z,99604.73
2019-03-18T12:46:53.124Z,99604.31
2019-03-18T12:49:22.523Z,99605.91
2019-03-18T12:51:51.866Z,99610.59
2019-03-18T12:54:21.300Z,99611.41
2019-03-18T12:56:50.715Z,99620.73
2019-03-18T12:59:20.038Z,99622.33
2019-03-18T13:01:49.539Z,99629.27
2019-03-18T13:04:18.943Z,99636.09
2019-03-18T13:06:48.288Z,99630.91
2019-03-18T13:09:17.691Z,99628.30
2019-03-18T13:11:47.036Z,99637.16
2019-03-18T13:14:16.332Z,99646.64
2019-03-18T13:16:45.876Z,99644.72
2019-03-18T13:19:15.316Z,99654.96
2019-03-18T13:21:44.718Z,99652.80
2019-03-18T13:24:14.062Z,99651.49
2019-03-18T13:26:43.488Z,99658.19
2019-03-18T13:29:12.965Z,99661.76
2019-03-18T13:31:42.309Z,99664.39
2019-03-18T13:34:11.662Z,99671.34
2019-03-18T13:36:41.068Z,99676.96
2019-03-18T13:39:10.510Z,99672.87
2019-03-18T13:41:39.883Z,99680.37
2019-03-18T13:44:09.201Z,99679.34
2019-03-18T13:46:38.660Z,99678.81
2019-03-18T13:49:07.976Z,99686.17
2019-03-18T13:51:37.342Z,99686.24
2019-03-18T13:54:06.761Z,99684.17
2019-03-18T13:56:36.344Z,99699.86
2019-03-18T13:59:05.768Z,99698.56
2019-03-18T14:01:35.212Z,99707.00
2019-03-18T14:04:04.642Z,99708.44
2019-03-18T14:06:34.240Z,99707.32
2019-03-18T14:09:03.969Z,99718.83
2019-03-18T14:11:33.429Z,99724.02
2019-03-18T14:14:02.788Z,99725.07
2019-03-18T14:16:32.152Z,99724.62
2019-03-18T14:19:01.615Z,99727.20
2019-03-18T14:21:33.528Z,99737.33
2019-03-18T14:24:02.146Z,99738.77
2019-03-18T14:26:31.795Z,99741.36
2019-03-18T14:29:01.188Z,99741.05
2019-03-18T14:31:30.563Z,99750.08
2019-03-18T14:33:59.951Z,99758.14
2019-03-18T14:36:29.544Z,99764.80
2019-03-18T14:38:58.870Z,99660.20
2019-03-18T14:41:28.218Z,99765.80
2019-03-18T14:43:57.610Z,99769.88
2019-03-18T14:46:26.997Z,99774.98
2019-03-18T14:48:56.467Z,99779.02
2019-03-18T14:51:25.773Z,99781.23
2019-03-18T14:53:55.100Z,99782.22
2019-03-18T14:56:24.482Z,99787.87
2019-03-18T14:58:53.959Z,99792.33
2019-03-18T15:01:23.494Z,99793.34
2019-03-18T15:03:52.906Z,99792.66
2019-03-18T15:06:22.284Z,99805.28
2019-03-18T15:08:51.667Z,99810.84
2019-03-18T15:11:21.105Z,99815.91
2019-03-18T15:13:51.501Z,99817.86
2019-03-18T15:16:20.926Z,99823.41
2019-03-18T15:18:50.411Z,99822.78
2019-03-18T15:21:19.866Z,99832.84
2019-03-18T15:23:49.275Z,99834.48
2019-03-18T15:26:18.598Z,99839.07
2019-03-18T15:28:48.074Z,99846.56
2019-03-18T15:31:17.473Z,99847.99
2019-03-18T15:33:46.887Z,99847.48
2019-03-18T15:36:16.307Z,99853.19
2019-03-18T15:38:46.023Z,99857.21
2019-03-18T15:41:15.843Z,99865.55
2019-03-18T15:43:45.171Z,99865.67
2019-03-18T15:46:14.625Z,99877.88
2019-03-18T15:48:44.119Z,99882.23
2019-03-18T15:51:13.490Z,99889.45
2019-03-18T15:53:42.846Z,99893.75
2019-03-18T15:56:12.290Z,99896.34
2019-03-18T15:58:41.666Z,99901.09
2019-03-18T16:01:11.069Z,99897.85
2019-03-18T16:03:40.478Z,99903.11
2019-03-18T16:06:09.961Z,99903.89
2019-03-18T16:08:39.388Z,99911.80
2019-03-18T16:11:08.837Z,99920.45
2019-03-18T16:13:38.179Z,99921.69
2019-03-18T16:16:07.583Z,99925.25
2019-03-18T16:18:37.014Z,99931.50
2019-03-18T16:21:06.326Z,99940.20
2019-03-18T16:23:35.695Z,99948.95
2019-03-18T16:26:05.134Z,99942.32
2019-03-18T16:28:34.481Z,99947.57
2019-03-18T16:31:03.963Z,99946.02
2019-03-18T16:33:33.439Z,99952.01
2019-03-18T16:36:02.832Z,99952.97
2019-03-18T16:38:32.153Z,99959.41
2019-03-18T16:41:01.526Z,99964.59
2019-03-18T16:43:30.948Z,99965.95
2019-03-18T16:46:00.399Z,99966.46
2019-03-18T16:48:29.747Z,99971.45
2019-03-18T16:50:59.368Z,99975.86
2019-03-18T16:53:28.739Z,99979.39
2019-03-18T16:55:58.223Z,99980.23
2019-03-18T16:58:27.742Z,99985.80
2019-03-18T17:00:57.126Z,99985.73
2019-03-18T17:03:26.482Z,99988.34
2019-03-18T17:05:56.003Z,99998.78
2019-03-18T17:08:25.572Z,99997.11
2019-03-18T17:10:55.193Z,99999.71
2019-03-18T17:13:24.745Z,100004.16
2019-03-18T17:15:54.155Z,100015.20
2019-03-18T17:18:23.566Z,100011.02
2019-03-18T17:20:52.945Z,100014.30
2019-03-18T17:23:22.383Z,100035.92
2019-03-18T17:25:51.717Z,100030.06
2019-03-18T17:28:21.211Z,100036.66
2019-03-18T17:30:50.581Z,100041.00
2019-03-18T17:33:19.945Z,100041.45
2019-03-18T17:35:49.413Z,100037.74
2019-03-18T17:38:18.862Z,100042.09
2019-03-18T17:40:48.295Z,99925.09
2019-03-18T17:43:17.646Z,100049.02
2019-03-18T17:45:47.061Z,100048.41
2019-03-18T17:48:16.384Z,100050.55
2019-03-18T17:50:45.747Z,100063.19
2019-03-18T17:53:15.118Z,100066.63
2019-03-18T17:55:44.531Z,100067.21
2019-03-18T17:58:13.910Z,100075.05
2019-03-18T18:00:45.965Z,100081.98
2019-03-18T18:03:15.408Z,100091.33
2019-03-18T18:05:44.971Z,100091.06
2019-03-18T18:08:14.497Z,100090.56
2019-03-18T18:10:43.965Z,100085.42
2019-03-18T18:13:13.322Z,100095.41
2019-03-18T18:15:42.704Z,100098.17
2019-03-18T18:18:12.265Z,100114.59
2019-03-18T18:20:41.745Z,100101.94
2019-03-18T18:23:15.043Z,100102.39
2019-03-18T18:25:44.880Z,100118.04
2019-03-18T18:28:14.357Z,100121.75
2019-03-18T18:30:43.725Z,100123.50
2019-03-18T18:33:13.244Z,100130.89
2019-03-18T18:35:42.644Z,100139.61
2019-03-18T18:38:12.076Z,100146.59
2019-03-18T18:40:41.540Z,100144.81
2019-03-18T18:43:10.934Z,100150.13
2019-03-18T18:45:40.390Z,100148.92
2019-03-18T18:48:09.796Z,100158.45
2019-03-18T18:50:39.148Z,100158.67
2019-03-18T18:53:08.568Z,100166.95
2019-03-18T18:55:38.086Z,100170.06
2019-03-18T18:58:08.871Z,100171.86
2019-03-18T19:00:38.324Z,100173.64
2019-03-18T19:03:07.742Z,100170.20
2019-03-18T19:05:37.081Z,100175.39
2019-03-18T19:08:06.574Z,100186.73
2019-03-18T19:10:35.982Z,100182.44
2019-03-18T19:13:05.343Z,100186.87
2019-03-18T19:15:34.797Z,100186.02
2019-03-18T19:18:04.257Z,100186.19
2019-03-18T19:20:33.622Z,100193.97
2019-03-18T19:23:03.275Z,100196.16
2019-03-18T19:25:32.748Z,100195.70
2019-03-18T19:28:02.104Z,100197.41
2019-03-18T19:30:31.494Z,100200.00
2019-03-18T19:33:01.020Z,100204.30
2019-03-18T19:35:30.477Z,100208.67
2019-03-18T19:37:59.968Z,100111.45
2019-03-18T19:40:29.512Z,100211.62
2019-03-18T19:42:58.988Z,100208.23
2019-03-18T19:45:28.387Z,100203.48
2019-03-18T19:47:57.823Z,100214.80
2019-03-18T19:50:27.351Z,100223.44
2019-03-18T19:52:56.713Z,100230.77
2019-03-18T19:55:26.068Z,100228.33
2019-03-18T19:57:55.472Z,100228.33
2019-03-18T20:00:24.876Z,100235.67
2019-03-18T20:02:54.311Z,100237.49
2019-03-18T20:05:23.795Z,100240.20
2019-03-18T20:07:53.143Z,100240.61
2019-03-18T20:10:22.597Z,100251.47
2019-03-18T20:12:52.024Z,100257.46
2019-03-18T20:15:21.509Z,100256.70
2019-03-18T20:17:50.847Z,100260.98
2019-03-18T20:20:20.295Z,100258.40
2019-03-18T20:22:49.728Z,100251.11
2019-03-18T20:25:20.053Z,100258.55
2019-03-18T20:27:49.591Z,100267.18
2019-03-18T20:30:19.046Z,100259.94
2019-03-18T20:32:48.359Z,100270.83
2019-03-18T20:35:17.979Z,100269.16
2019-03-18T20:37:47.443Z,100275.72
2019-03-18T20:40:17.453Z,100276.61
2019-03-18T20:42:46.789Z,100284.95
2019-03-18T20:45:16.337Z,100286.88
2019-03-18T20:47:45.713Z,100287.00
2019-03-18T20:50:15.882Z,100289.33
2019-03-18T20:52:45.362Z,100289.52
2019-03-18T20:55:15.545Z,100292.59
2019-03-18T20:57:44.934Z,100293.58
2019-03-18T21:00:15.714Z,100305.77
2019-03-18T21:02:45.109Z,100304.09
2019-03-18T21:05:14.507Z,100313.68
2019-03-18T21:07:43.886Z,100309.87
2019-03-18T21:10:13.260Z,100302.58
2019-03-18T21:12:42.672Z,100313.86
2019-03-18T21:15:12.645Z,100317.78
2019-03-18T21:17:42.295Z,100322.11
2019-03-18T21:20:13.666Z,100329.54
2019-03-18T21:22:43.074Z,100335.67
2019-03-18T21:25:12.662Z,100337.08
2019-03-18T21:27:42.140Z,100341.13
2019-03-18T21:30:12.285Z,100344.71
2019-03-18T21:32:41.705Z,100351.35
2019-03-18T21:35:11.222Z,100357.04
2019-03-18T21:37:40.763Z,100366.23
2019-03-18T21:40:11.300Z,100365.29
2019-03-18T21:42:40.693Z,100371.83
2019-03-18T21:45:12.352Z,100372.02
2019-03-18T21:47:41.705Z,100377.22
2019-03-18T21:50:11.331Z,100379.08
2019-03-18T21:52:40.816Z,100382.55
2019-03-18T21:55:10.487Z,100391.58
2019-03-18T21:57:40.001Z,100406.95
2019-03-18T22:00:10.271Z,100406.95
2019-03-18T22:02:39.687Z,100408.12
2019-03-18T22:05:09.210Z,100404.68
2019-03-18T22:07:38.634Z,100406.83
2019-03-18T22:10:09.005Z,100414.15
2019-03-18T22:12:38.533Z,100411.15
2019-03-18T22:15:09.039Z,100412.56
2019-03-18T22:17:38.516Z,100415.59
2019-03-18T22:20:09.826Z,100423.95
2019-03-18T22:22:39.172Z,100423.95
2019-03-18T22:25:09.168Z,100428.69
2019-03-18T22:27:38.510Z,100424.77
2019-03-18T22:30:08.794Z,100423.51
2019-03-18T22:32:38.192Z,100428.69
2019-03-18T22:35:07.610Z,100431.71
2019-03-18T22:37:37.039Z,100431.71
2019-03-18T22:40:06.931Z,100433.54
2019-03-18T22:42:36.350Z,100446.80
2019-03-18T22:45:06.461Z,100450.27
2019-03-18T22:47:35.860Z,100445.67
2019-03-18T22:50:06.108Z,100460.44
2019-03-18T22:52:35.468Z,100458.55
2019-03-18T22:55:05.821Z,100462.12
2019-03-18T22:57:35.202Z,100471.17
2019-03-18T23:00:08.126Z,100469.61
2019-03-18T23:02:37.501Z,100469.61
2019-03-18T23:05:07.068Z,100462.99
2019-03-18T23:07:36.394Z,100470.93
2019-03-18T23:10:06.282Z,100474.23
2019-03-18T23:12:35.705Z,100470.48
2019-03-18T23:15:05.460Z,100469.03
2019-03-18T23:17:34.833Z,100476.57
2019-03-18T23:20:04.569Z,100479.77
2019-03-18T23:22:33.940Z,100490.57
2019-03-18T23:25:07.667Z,100498.75
2019-03-18T23:27:34.359Z,100499.70
2019-03-18T23:30:03.990Z,100493.29
2019-03-18T23:32:33.346Z,100497.18
2019-03-18T23:35:02.733Z,100497.30
2019-03-18T23:37:32.125Z,100499.14
2019-03-18T23:40:01.540Z,100500.09
2019-03-18T23:42:30.926Z,100506.58
2019-03-18T23:45:00.379Z,100502.71
2019-03-18T23:47:29.949Z,100516.05
2019-03-18T23:49:59.329Z,100400.77
2019-03-18T23:52:28.814Z,100526.71
2019-03-18T23:54:58.157Z,100525.34
2019-03-18T23:57:27.653Z,100533.56
2019-03-18T23:59:56.998Z,100527.97
